Menu Horizontal
luftaufnahme
Willkommen auf der Webseite der privaten Wetterstation -- Taufkirchen an der Pram -- 48°24'29,52" Nord  <>  13°32'13,20" Ost

Wetterdaten - Dienstag, 13.04.2021 - Taufkirchen an der Pram     336 m über NN
Wetterdaten: aktuell Dienstag, 13.04.2021 15:00
Datum Zeit Temp. A. Feuchte A. Luftdruck Regen Wind Sonnenschein UV Solar Windchill Empfang
13.04.2021 15:00 4,4 °C 86 % 1028,5 hPa 0,0 l/m² 2,1 km/h 10 min 2,0 UV-I 300 W/m² 4,4 °C 99 %
13.04.2021 14:50 4,3 °C 87 % 1028,6 hPa 0,0 l/m² 2,8 km/h 10 min 1,9 UV-I 260 W/m² 4,3 °C 100 %
13.04.2021 14:40 3,9 °C 88 % 1028,9 hPa 0,2 l/m² 4,1 km/h 10 min 1,5 UV-I 185 W/m² 3,9 °C 100 %
13.04.2021 14:30 3,7 °C 88 % 1029,0 hPa 0,0 l/m² 3,8 km/h 0 min 0,9 UV-I 93 W/m² 3,7 °C 99 %
13.04.2021 14:20 3,7 °C 88 % 1029,1 hPa 0,2 l/m² 5,2 km/h 0 min 0,3 UV-I 56 W/m² 3,7 °C 100 %
13.04.2021 14:10 3,6 °C 89 % 1029,1 hPa 0,2 l/m² 2,9 km/h 0 min 0,9 UV-I 95 W/m² 3,6 °C 100 %
13.04.2021 14:00 3,4 °C 88 % 1029,1 hPa 0,0 l/m² 0,0 km/h 0 min 0,5 UV-I 66 W/m² 3,4 °C 100 %
13.04.2021 13:50 3,4 °C 87 % 1029,2 hPa 0,0 l/m² 3,1 km/h 0 min 0,4 UV-I 57 W/m² 3,4 °C 100 %
13.04.2021 13:40 4,0 °C 86 % 1029,3 hPa 0,0 l/m² 7,3 km/h 10 min 1,2 UV-I 142 W/m² 3,2 °C 92 %
13.04.2021 13:30 4,1 °C 88 % 1029,3 hPa 0,0 l/m² 6,2 km/h 10 min 2,0 UV-I 254 W/m² 4,1 °C 100 %
13.04.2021 13:20 3,9 °C 89 % 1029,4 hPa 0,0 l/m² 6,6 km/h 10 min 2,0 UV-I 262 W/m² 3,7 °C 100 %
13.04.2021 13:10 3,8 °C 90 % 1029,4 hPa 0,0 l/m² 7,0 km/h 10 min 2,3 UV-I 312 W/m² 3,3 °C 100 %
13.04.2021 13:00 3,6 °C 90 % 1029,5 hPa 0,0 l/m² 6,6 km/h 10 min 2,1 UV-I 276 W/m² 3,4 °C 100 %
13.04.2021 12:50 3,6 °C 89 % 1029,6 hPa 0,0 l/m² 6,7 km/h 10 min 1,2 UV-I 151 W/m² 3,3 °C 99 %
13.04.2021 12:40 3,5 °C 90 % 1029,7 hPa 0,0 l/m² 3,5 km/h 10 min 2,1 UV-I 278 W/m² 3,5 °C 100 %
13.04.2021 12:30 3,3 °C 89 % 1029,8 hPa 0,2 l/m² 5,3 km/h 10 min 1,7 UV-I 210 W/m² 3,3 °C 100 %
13.04.2021 12:20 3,4 °C 88 % 1029,9 hPa 0,2 l/m² 7,7 km/h 10 min 1,1 UV-I 118 W/m² 2,2 °C 100 %
13.04.2021 12:10 3,6 °C 89 % 1030,0 hPa 0,0 l/m² 6,0 km/h 10 min 1,9 UV-I 248 W/m² 3,6 °C 100 %
13.04.2021 12:00 3,3 °C 90 % 1030,1 hPa 0,0 l/m² 6,3 km/h 10 min 2,2 UV-I 289 W/m² 3,3 °C 100 %
13.04.2021 11:50 3,2 °C 90 % 1030,1 hPa 0,0 l/m² 6,1 km/h 10 min 1,6 UV-I 197 W/m² 3,2 °C 99 %
13.04.2021 11:40 3,1 °C 90 % 1030,2 hPa 0,0 l/m² 5,4 km/h 10 min 1,5 UV-I 168 W/m² 3,1 °C 100 %
13.04.2021 11:30 3,2 °C 90 % 1030,3 hPa 0,0 l/m² 5,0 km/h 10 min 1,6 UV-I 185 W/m² 3,2 °C 100 %
13.04.2021 11:20 3,2 °C 91 % 1030,3 hPa 0,0 l/m² 4,9 km/h 10 min 1,7 UV-I 220 W/m² 3,2 °C 100 %
13.04.2021 11:10 3,2 °C 92 % 1030,3 hPa 0,0 l/m² 1,3 km/h 10 min 1,8 UV-I 236 W/m² 3,2 °C 100 %
13.04.2021 11:00 2,9 °C 92 % 1030,3 hPa 0,0 l/m² 3,2 km/h 10 min 1,8 UV-I 264 W/m² 2,9 °C 100 %
13.04.2021 10:50 2,8 °C 92 % 1030,3 hPa 0,0 l/m² 2,7 km/h 10 min 1,8 UV-I 251 W/m² 2,8 °C 100 %
13.04.2021 10:40 2,6 °C 92 % 1030,3 hPa 0,0 l/m² 4,4 km/h 10 min 1,9 UV-I 270 W/m² 2,6 °C 99 %
13.04.2021 10:30 2,3 °C 92 % 1030,3 hPa 0,0 l/m² 4,8 km/h 10 min 1,4 UV-I 194 W/m² 2,3 °C 100 %
13.04.2021 10:20 2,4 °C 93 % 1030,3 hPa 0,0 l/m² 1,1 km/h 10 min 1,5 UV-I 210 W/m² 2,4 °C 99 %
13.04.2021 10:10 2,1 °C 93 % 1030,3 hPa 0,0 l/m² 2,5 km/h 10 min 1,3 UV-I 172 W/m² 2,1 °C 100 %
13.04.2021 10:00 2,1 °C 93 % 1030,3 hPa 0,0 l/m² 1,3 km/h 0 min 0,8 UV-I 96 W/m² 2,1 °C 100 %
13.04.2021 09:50 1,9 °C 93 % 1030,2 hPa 0,0 l/m² 1,3 km/h 10 min 0,9 UV-I 104 W/m² 1,9 °C 100 %
13.04.2021 09:40 1,8 °C 92 % 1030,1 hPa 0,0 l/m² 2,5 km/h 10 min 0,9 UV-I 108 W/m² 1,8 °C 91 %
13.04.2021 09:30 1,8 °C 92 % 1030,1 hPa 0,0 l/m² 3,2 km/h 0 min 0,9 UV-I 99 W/m² 1,8 °C 100 %
13.04.2021 09:20 2,0 °C 92 % 1030,1 hPa 0,0 l/m² 3,4 km/h 10 min 0,8 UV-I 106 W/m² 2,0 °C 100 %
13.04.2021 09:10 2,1 °C 92 % 1030,0 hPa 0,0 l/m² 1,7 km/h 0 min 0,7 UV-I 96 W/m² 2,1 °C 100 %
13.04.2021 09:00 2,0 °C 92 % 1029,9 hPa 0,0 l/m² 0,3 km/h 0 min 0,6 UV-I 93 W/m² 2,0 °C 100 %
13.04.2021 08:50 1,9 °C 92 % 1029,9 hPa 0,0 l/m² 0,0 km/h 10 min 0,6 UV-I 106 W/m² 1,9 °C 100 %
13.04.2021 08:40 1,8 °C 92 % 1030,0 hPa 0,0 l/m² 0,0 km/h 10 min 0,7 UV-I 128 W/m² 1,8 °C 100 %
13.04.2021 08:30 1,8 °C 92 % 1030,0 hPa 0,0 l/m² 0,0 km/h 0 min 0,7 UV-I 100 W/m² 1,8 °C 100 %
13.04.2021 08:20 1,7 °C 92 % 1030,0 hPa 0,0 l/m² 0,0 km/h 0 min 0,5 UV-I 74 W/m² 1,7 °C 100 %
13.04.2021 08:10 1,7 °C 92 % 1030,0 hPa 0,0 l/m² 0,0 km/h 0 min 0,5 UV-I 75 W/m² 1,7 °C 100 %
13.04.2021 08:00 1,6 °C 91 % 1030,0 hPa 0,0 l/m² 0,0 km/h 0 min 0,2 UV-I 66 W/m² 1,6 °C 100 %
13.04.2021 07:50 1,5 °C 91 % 1030,0 hPa 0,0 l/m² 0,0 km/h 0 min 0,0 UV-I 55 W/m² 1,5 °C 100 %
13.04.2021 07:40 1,5 °C 91 % 1030,0 hPa 0,0 l/m² 0,6 km/h 0 min 0,0 UV-I 46 W/m² 1,5 °C 100 %
13.04.2021 07:30 1,6 °C 90 % 1029,9 hPa 0,0 l/m² 0,9 km/h 0 min 0,0 UV-I 37 W/m² 1,6 °C 100 %
13.04.2021 07:20 1,6 °C 90 % 1029,9 hPa 0,0 l/m² 2,9 km/h 0 min 0,0 UV-I 28 W/m² 1,6 °C 100 %
13.04.2021 07:10 1,8 °C 91 % 1029,8 hPa 0,0 l/m² 1,6 km/h 0 min 0,0 UV-I 19 W/m² 1,8 °C 100 %
13.04.2021 07:00 1,9 °C 91 % 1029,6 hPa 0,0 l/m² 1,0 km/h 0 min 0,0 UV-I 11 W/m² 1,9 °C 100 %
13.04.2021 06:50 1,9 °C 91 % 1029,5 hPa 0,0 l/m² 0,0 km/h 0 min 0,0 UV-I 6 W/m² 1,9 °C 100 %
13.04.2021 06:40 1,9 °C 91 % 1029,3 hPa 0,0 l/m² 0,0 km/h 0 min 0,0 UV-I 0 W/m² 1,9 °C 100 %
13.04.2021 06:30 1,8 °C 92 % 1029,3 hPa 0,0 l/m² 1,0 km/h 0 min 0,0 UV-I 0 W/m² 1,8 °C 100 %
13.04.2021 06:20 1,9 °C 92 % 1029,2 hPa 0,0 l/m² 0,0 km/h 0 min 0,0 UV-I 0 W/m² 1,9 °C 99 %
13.04.2021 06:10 1,9 °C 92 % 1029,1 hPa 0,0 l/m² 0,0 km/h 0 min 0,0 UV-I 0 W/m² 1,9 °C 100 %
13.04.2021 06:00 1,9 °C 93 % 1029,1 hPa 0,0 l/m² 0,1 km/h 0 min 0,0 UV-I 0 W/m² 1,9 °C 100 %
13.04.2021 05:50 1,9 °C 93 % 1029,1 hPa 0,0 l/m² 1,1 km/h 0 min 0,0 UV-I 0 W/m² 1,9 °C 100 %
13.04.2021 05:40 2,0 °C 93 % 1029,0 hPa 0,0 l/m² 2,8 km/h 0 min 0,0 UV-I 0 W/m² 2,0 °C 100 %
13.04.2021 05:30 2,0 °C 94 % 1029,0 hPa 0,0 l/m² 1,8 km/h 0 min 0,0 UV-I 0 W/m² 2,0 °C 100 %
13.04.2021 05:20 2,1 °C 94 % 1029,0 hPa 0,0 l/m² 0,9 km/h 0 min 0,0 UV-I 0 W/m² 2,1 °C 91 %
13.04.2021 05:10 2,2 °C 94 % 1029,0 hPa 0,0 l/m² 4,3 km/h 0 min 0,0 UV-I 0 W/m² 2,2 °C 100 %
13.04.2021 05:00 2,3 °C 94 % 1029,0 hPa 0,0 l/m² 2,2 km/h 0 min 0,0 UV-I 0 W/m² 2,3 °C 99 %
13.04.2021 04:50 2,4 °C 95 % 1029,0 hPa 0,0 l/m² 0,9 km/h 0 min 0,0 UV-I 0 W/m² 2,4 °C 100 %
13.04.2021 04:40 2,4 °C 95 % 1028,9 hPa 0,0 l/m² 0,2 km/h 0 min 0,0 UV-I 0 W/m² 2,4 °C 100 %
13.04.2021 04:30 2,4 °C 95 % 1029,0 hPa 0,0 l/m² 0,1 km/h 0 min 0,0 UV-I 0 W/m² 2,4 °C 99 %
13.04.2021 04:20 2,4 °C 95 % 1029,1 hPa 0,0 l/m² 0,0 km/h 0 min 0,0 UV-I 0 W/m² 2,4 °C 100 %
13.04.2021 04:10 2,4 °C 95 % 1029,1 hPa 0,0 l/m² 0,2 km/h 0 min 0,0 UV-I 0 W/m² 2,4 °C 100 %
13.04.2021 04:00 2,4 °C 95 % 1029,1 hPa 0,0 l/m² 0,6 km/h 0 min 0,0 UV-I 0 W/m² 2,4 °C 100 %
13.04.2021 03:50 2,5 °C 100 % 1029,2 hPa 0,0 l/m² 0,0 km/h 0 min 0,0 UV-I 0 W/m² 2,5 °C 100 %
13.04.2021 03:40 2,4 °C 95 % 1029,2 hPa 0,0 l/m² 2,3 km/h 0 min 0,0 UV-I 0 W/m² 2,4 °C 91 %
13.04.2021 03:30 2,4 °C 95 % 1029,2 hPa 0,0 l/m² 0,3 km/h 0 min 0,0 UV-I 0 W/m² 2,4 °C 100 %
13.04.2021 03:20 2,3 °C 95 % 1029,1 hPa 0,0 l/m² 0,1 km/h 0 min 0,0 UV-I 0 W/m² 2,3 °C 100 %
13.04.2021 03:10 2,3 °C 95 % 1029,1 hPa 0,0 l/m² 0,1 km/h 0 min 0,0 UV-I 0 W/m² 2,3 °C 99 %
13.04.2021 03:00 2,3 °C 94 % 1029,0 hPa 0,0 l/m² 0,0 km/h 0 min 0,0 UV-I 0 W/m² 2,3 °C 100 %
13.04.2021 02:50 2,3 °C 95 % 1029,0 hPa 0,0 l/m² 0,0 km/h 0 min 0,0 UV-I 0 W/m² 2,3 °C 99 %
13.04.2021 02:40 2,3 °C 94 % 1029,0 hPa 0,0 l/m² 0,1 km/h 0 min 0,0 UV-I 0 W/m² 2,3 °C 100 %
13.04.2021 02:30 2,3 °C 94 % 1029,0 hPa 0,0 l/m² 0,4 km/h 0 min 0,0 UV-I 0 W/m² 2,3 °C 100 %
13.04.2021 02:20 2,3 °C 94 % 1028,9 hPa 0,0 l/m² 0,0 km/h 0 min 0,0 UV-I 0 W/m² 2,3 °C 100 %
13.04.2021 02:10 2,2 °C 94 % 1028,9 hPa 0,0 l/m² 0,3 km/h 0 min 0,0 UV-I 0 W/m² 2,2 °C 100 %
13.04.2021 02:00 2,2 °C 94 % 1028,9 hPa 0,0 l/m² 0,0 km/h 0 min 0,0 UV-I 0 W/m² 2,2 °C 97 %
13.04.2021 01:50 2,2 °C 94 % 1029,0 hPa 0,0 l/m² 0,8 km/h 0 min 0,0 UV-I 0 W/m² 2,2 °C 93 %
13.04.2021 01:40 2,2 °C 94 % 1029,1 hPa 0,2 l/m² 0,3 km/h 0 min 0,0 UV-I 0 W/m² 2,2 °C 100 %
13.04.2021 01:30 2,2 °C 94 % 1029,2 hPa 0,0 l/m² 0,9 km/h 0 min 0,0 UV-I 0 W/m² 2,2 °C 99 %
13.04.2021 01:20 2,3 °C 94 % 1029,2 hPa 0,0 l/m² 0,6 km/h 0 min 0,0 UV-I 0 W/m² 2,3 °C 99 %
13.04.2021 01:10 2,2 °C 94 % 1029,2 hPa 0,0 l/m² 0,5 km/h 0 min 0,0 UV-I 0 W/m² 2,2 °C 99 %
13.04.2021 01:00 2,2 °C 94 % 1029,2 hPa 0,0 l/m² 0,5 km/h 0 min 0,0 UV-I 0 W/m² 2,2 °C 100 %
13.04.2021 00:50 2,2 °C 94 % 1029,2 hPa 0,0 l/m² 1,1 km/h 0 min 0,0 UV-I 0 W/m² 2,2 °C 100 %
13.04.2021 00:40 2,3 °C 94 % 1029,4 hPa 0,0 l/m² 0,0 km/h 0 min 0,0 UV-I 0 W/m² 2,3 °C 99 %
13.04.2021 00:30 2,3 °C 94 % 1029,3 hPa 0,0 l/m² 0,0 km/h 0 min 0,0 UV-I 0 W/m² 2,3 °C 100 %
13.04.2021 00:20 2,3 °C 94 % 1029,2 hPa 0,0 l/m² 0,0 km/h 0 min 0,0 UV-I 0 W/m² 2,3 °C 100 %
13.04.2021 00:10 2,2 °C 94 % 1029,2 hPa 0,0 l/m² 0,0 km/h 0 min 0,0 UV-I 0 W/m² 2,2 °C 100 %
13.04.2021 00:00 2,1 °C 94 % 1029,4 hPa 0,0 l/m² 0,0 km/h 0 min 0,0 UV-I 0 W/m² 2,1 °C 100 %
12.04.2021 23:50 2,1 °C 94 % 1029,3 hPa 0,0 l/m² 0,0 km/h 0 min 0,0 UV-I 0 W/m² 2,1 °C 100 %
12.04.2021 23:40 2,0 °C 94 % 1029,3 hPa 0,0 l/m² 0,9 km/h 0 min 0,0 UV-I 0 W/m² 2,0 °C 100 %
12.04.2021 23:30 2,0 °C 94 % 1029,3 hPa 0,0 l/m² 1,9 km/h 0 min 0,0 UV-I 0 W/m² 2,0 °C 100 %
12.04.2021 23:20 2,0 °C 94 % 1029,2 hPa 0,0 l/m² 2,1 km/h 0 min 0,0 UV-I 0 W/m² 2,0 °C 100 %
12.04.2021 23:10 2,0 °C 94 % 1029,3 hPa 0,2 l/m² 2,3 km/h 0 min 0,0 UV-I 0 W/m² 2,0 °C 100 %
12.04.2021 23:00 2,1 °C 93 % 1029,3 hPa 0,0 l/m² 0,8 km/h 0 min 0,0 UV-I 0 W/m² 2,1 °C 100 %
12.04.2021 22:50 2,1 °C 93 % 1029,3 hPa 0,0 l/m² 4,2 km/h 0 min 0,0 UV-I 0 W/m² 2,1 °C 100 %
12.04.2021 22:40 2,2 °C 93 % 1029,3 hPa 0,0 l/m² 3,3 km/h 0 min 0,0 UV-I 0 W/m² 2,2 °C 100 %
12.04.2021 22:30 2,2 °C 93 % 1029,3 hPa 0,0 l/m² 4,0 km/h 0 min 0,0 UV-I 0 W/m² 2,2 °C 100 %
12.04.2021 22:20 2,3 °C 93 % 1029,3 hPa 0,0 l/m² 3,4 km/h 0 min 0,0 UV-I 0 W/m² 2,3 °C 100 %
12.04.2021 22:10 2,3 °C 93 % 1029,3 hPa 0,0 l/m² 5,1 km/h 0 min 0,0 UV-I 0 W/m² 2,3 °C 100 %
12.04.2021 22:00 2,5 °C 93 % 1029,3 hPa 0,2 l/m² 1,1 km/h 0 min 0,0 UV-I 0 W/m² 2,5 °C 99 %
12.04.2021 21:50 2,5 °C 93 % 1029,4 hPa 0,2 l/m² 1,8 km/h 0 min 0,0 UV-I 0 W/m² 2,5 °C 100 %
12.04.2021 21:40 2,5 °C 93 % 1029,4 hPa 0,0 l/m² 1,5 km/h 0 min 0,0 UV-I 0 W/m² 2,5 °C 100 %
12.04.2021 21:30 2,6 °C 93 % 1029,3 hPa 0,0 l/m² 2,6 km/h 0 min 0,0 UV-I 0 W/m² 2,6 °C 100 %
12.04.2021 21:20 2,7 °C 93 % 1029,2 hPa 0,2 l/m² 3,4 km/h 0 min 0,0 UV-I 0 W/m² 2,7 °C 100 %
12.04.2021 21:10 2,8 °C 93 % 1029,1 hPa 0,2 l/m² 1,3 km/h 0 min 0,0 UV-I 0 W/m² 2,8 °C 99 %
12.04.2021 21:00 2,8 °C 93 % 1029,0 hPa 0,0 l/m² 0,6 km/h 0 min 0,0 UV-I 0 W/m² 2,8 °C 99 %
12.04.2021 20:50 2,7 °C 93 % 1029,1 hPa 0,0 l/m² 3,0 km/h 0 min 0,0 UV-I 0 W/m² 2,7 °C 95 %
12.04.2021 20:40 2,8 °C 93 % 1028,9 hPa 0,0 l/m² 4,0 km/h 0 min 0,0 UV-I 0 W/m² 2,8 °C 96 %
12.04.2021 20:30 2,8 °C 93 % 1028,8 hPa 0,0 l/m² 3,1 km/h 0 min 0,0 UV-I 0 W/m² 2,8 °C 99 %
12.04.2021 20:20 2,8 °C 93 % 1028,7 hPa 0,2 l/m² 4,1 km/h 0 min 0,0 UV-I 0 W/m² 2,8 °C 100 %
12.04.2021 20:10 2,8 °C 93 % 1028,6 hPa 0,0 l/m² 5,5 km/h 0 min 0,0 UV-I 0 W/m² 2,8 °C 100 %
12.04.2021 20:00 2,8 °C 93 % 1028,3 hPa 0,0 l/m² 4,0 km/h 0 min 0,0 UV-I 0 W/m² 2,8 °C 100 %
12.04.2021 19:50 2,9 °C 93 % 1028,2 hPa 0,0 l/m² 4,8 km/h 0 min 0,0 UV-I 3 W/m² 2,9 °C 91 %
12.04.2021 19:40 2,9 °C 93 % 1028,1 hPa 0,0 l/m² 5,1 km/h 0 min 0,0 UV-I 11 W/m² 2,9 °C 100 %
12.04.2021 19:30 2,9 °C 93 % 1028,0 hPa 0,0 l/m² 6,5 km/h 0 min 0,0 UV-I 21 W/m² 2,8 °C 99 %
12.04.2021 19:20 3,0 °C 93 % 1027,8 hPa 0,0 l/m² 7,7 km/h 0 min 0,0 UV-I 31 W/m² 1,8 °C 100 %
12.04.2021 19:10 2,9 °C 93 % 1027,8 hPa 0,0 l/m² 10,6 km/h 0 min 0,0 UV-I 33 W/m² -0,7 °C 100 %
12.04.2021 19:00 2,9 °C 93 % 1027,6 hPa 0,0 l/m² 10,7 km/h 0 min 0,0 UV-I 29 W/m² -0,8 °C 100 %
12.04.2021 18:50 3,0 °C 93 % 1027,5 hPa 0,0 l/m² 7,2 km/h 0 min 0,0 UV-I 34 W/m² 2,2 °C 100 %
12.04.2021 18:40 2,9 °C 94 % 1027,3 hPa 0,0 l/m² 9,9 km/h 0 min 0,0 UV-I 41 W/m² -0,2 °C 100 %
12.04.2021 18:30 2,9 °C 94 % 1027,2 hPa 0,2 l/m² 8,5 km/h 0 min 0,0 UV-I 40 W/m² 1,0 °C 99 %
12.04.2021 18:20 2,8 °C 93 % 1027,1 hPa 0,0 l/m² 10,8 km/h 0 min 0,0 UV-I 40 W/m² -0,9 °C 100 %
12.04.2021 18:10 2,8 °C 94 % 1027,0 hPa 0,4 l/m² 9,2 km/h 0 min 0,0 UV-I 38 W/m² 0,3 °C 100 %
12.04.2021 18:00 2,7 °C 94 % 1026,9 hPa 0,0 l/m² 12,5 km/h 0 min 0,1 UV-I 55 W/m² -2,2 °C 100 %
12.04.2021 17:50 2,8 °C 94 % 1026,7 hPa 0,2 l/m² 8,2 km/h 0 min 0,1 UV-I 56 W/m² 1,1 °C 100 %
12.04.2021 17:40 2,7 °C 94 % 1026,6 hPa 0,2 l/m² 8,7 km/h 0 min 0,5 UV-I 67 W/m² 0,6 °C 100 %
12.04.2021 17:30 2,6 °C 94 % 1026,4 hPa 0,4 l/m² 9,2 km/h 0 min 0,5 UV-I 74 W/m² 0,1 °C 99 %
12.04.2021 17:20 2,3 °C 94 % 1026,2 hPa 0,2 l/m² 9,6 km/h 0 min 0,5 UV-I 65 W/m² -0,6 °C 100 %
12.04.2021 17:10 2,3 °C 93 % 1026,1 hPa 0,4 l/m² 10,3 km/h 0 min 0,6 UV-I 68 W/m² -1,1 °C 100 %
12.04.2021 17:00 2,4 °C 93 % 1025,9 hPa 0,2 l/m² 11,8 km/h 0 min 0,6 UV-I 68 W/m² -2,1 °C 100 %
12.04.2021 16:50 2,4 °C 93 % 1025,8 hPa 0,4 l/m² 10,2 km/h 0 min 0,5 UV-I 60 W/m² -1,0 °C 100 %
12.04.2021 16:40 2,6 °C 93 % 1025,7 hPa 0,2 l/m² 8,6 km/h 0 min 0,6 UV-I 63 W/m² 0,6 °C 100 %
12.04.2021 16:30 2,5 °C 93 % 1025,5 hPa 0,4 l/m² 12,3 km/h 0 min 0,6 UV-I 65 W/m² -2,3 °C 100 %
12.04.2021 16:20 2,6 °C 93 % 1025,4 hPa 0,4 l/m² 10,0 km/h 0 min 0,6 UV-I 65 W/m² -0,6 °C 91 %
12.04.2021 16:10 2,7 °C 93 % 1025,1 hPa 0,4 l/m² 11,8 km/h 0 min 0,7 UV-I 66 W/m² -1,8 °C 100 %
12.04.2021 16:00 2,8 °C 92 % 1024,9 hPa 0,4 l/m² 15,0 km/h 0 min 0,6 UV-I 63 W/m² -3,6 °C 100 %
_ Min-Zeit 07:50 15:00 16:00 - 14:00 - - - 16:00 05:20
Minimum _ 1,5 °C 86 % 1024,9 hPa - 0,0 km/h - - - -3,6 °C 91 %
_ Max-Zeit 15:00 03:50 11:30 18:10 16:00 15:00 13:10 13:10 15:00 14:20
Maximum _ 4,4 °C 100 % 1030,3 hPa 0,4 l/m² 15,0 km/h
NW
10 min 2,3 UV-I 312 W/m² 4,4 °C 100 %
Durchschnitt _ 2,6 °C 92 % 1028,6 hPa #6,8 l/m² 4,3 km/h #5:00 h 1,3 UV-I 82 W/m² 1,6 °C 99 %